createdAt,value
2023-04-05T00:02:24.779Z,6.20
2023-04-05T00:04:54.992Z,6.07
2023-04-05T00:07:24.668Z,6.15
2023-04-05T00:09:52.713Z,6.06
2023-04-05T00:12:21.334Z,6.03
2023-04-05T00:14:48.936Z,6.19
2023-04-05T00:17:18.221Z,6.10
2023-04-05T00:19:45.755Z,5.94
2023-04-05T00:22:14.009Z,5.92
2023-04-05T00:24:43.548Z,5.95
2023-04-05T00:27:12.026Z,6.09
2023-04-05T00:29:40.040Z,5.89
2023-04-05T00:32:07.927Z,6.02
2023-04-05T00:34:35.795Z,6.03
2023-04-05T00:37:03.827Z,6.00
2023-04-05T00:39:32.047Z,5.81
2023-04-05T00:42:06.241Z,5.69
2023-04-05T00:44:35.173Z,5.76
2023-04-05T00:47:07.830Z,5.89
2023-04-05T00:49:38.982Z,5.59
2023-04-05T00:52:07.016Z,5.68
2023-04-05T00:54:35.243Z,5.73
2023-04-05T00:57:03.516Z,5.84
2023-04-05T00:59:31.452Z,5.69
2023-04-05T01:02:02.749Z,5.71
2023-04-05T01:04:33.044Z,5.68
2023-04-05T01:07:14.540Z,5.73
2023-04-05T01:09:53.839Z,5.70
2023-04-05T01:12:23.597Z,5.67
2023-04-05T01:14:54.241Z,5.52
2023-04-05T01:17:24.519Z,5.56
2023-04-05T01:19:58.991Z,5.62
2023-04-05T01:23:04.550Z,5.38
2023-04-05T01:26:09.162Z,5.43
2023-04-05T01:28:58.614Z,5.25
2023-04-05T01:31:44.040Z,5.27
2023-04-05T01:34:34.512Z,5.30
2023-04-05T01:37:06.615Z,5.20
2023-04-05T01:39:36.449Z,5.08
2023-04-05T01:42:06.152Z,5.12
2023-04-05T01:44:33.770Z,5.02
2023-04-05T01:47:01.435Z,4.94
2023-04-05T01:49:29.305Z,5.11
2023-04-05T01:51:58.120Z,5.12
2023-04-05T01:54:25.596Z,5.03
2023-04-05T01:56:54.118Z,5.04
2023-04-05T01:59:23.107Z,4.93
2023-04-05T02:01:53.606Z,4.91
2023-04-05T02:04:24.496Z,4.86
2023-04-05T02:06:53.077Z,4.88
2023-04-05T02:09:21.687Z,4.84
2023-04-05T02:11:49.957Z,4.81
2023-04-05T02:14:20.399Z,4.84
2023-04-05T02:16:49.785Z,4.71
2023-04-05T02:19:23.287Z,4.82
2023-04-05T02:21:58.036Z,4.72
2023-04-05T02:24:26.861Z,4.76
2023-04-05T02:26:54.806Z,4.65
2023-04-05T02:29:32.109Z,4.55
2023-04-05T02:32:01.096Z,4.55
2023-04-05T02:34:29.114Z,4.52
2023-04-05T02:36:59.408Z,4.38
2023-04-05T02:39:29.118Z,4.53
2023-04-05T02:41:59.428Z,4.65
2023-04-05T02:44:30.036Z,4.47
2023-04-05T02:46:58.230Z,4.45
2023-04-05T02:49:26.259Z,4.53
2023-04-05T02:51:56.355Z,4.70
2023-04-05T02:54:25.300Z,4.56
2023-04-05T02:56:54.836Z,4.59
2023-04-05T02:59:23.823Z,4.48
2023-04-05T03:01:51.798Z,4.34
2023-04-05T03:04:21.636Z,4.30
2023-04-05T03:06:57.454Z,4.14
2023-04-05T03:09:32.833Z,4.11
2023-04-05T03:12:04.482Z,4.29
2023-04-05T03:14:34.562Z,4.25
2023-04-05T03:17:06.489Z,4.20
2023-04-05T03:19:35.892Z,4.51
2023-04-05T03:22:05.471Z,4.09
2023-04-05T03:24:33.521Z,4.23
2023-04-05T03:27:04.251Z,4.21
2023-04-05T03:29:34.877Z,4.20
2023-04-05T03:32:12.682Z,4.25
2023-04-05T03:34:42.219Z,3.94
2023-04-05T03:37:12.077Z,4.10
2023-04-05T03:39:39.971Z,3.92
2023-04-05T03:42:08.176Z,3.97
2023-04-05T03:44:37.399Z,4.10
2023-04-05T03:47:06.174Z,3.93
2023-04-05T03:49:35.238Z,3.99
2023-04-05T03:52:10.817Z,4.07
2023-04-05T03:54:43.315Z,3.97
2023-04-05T03:57:12.241Z,4.04
2023-04-05T03:59:41.676Z,3.88
2023-04-05T04:02:11.256Z,3.76
2023-04-05T04:04:39.811Z,3.95
2023-04-05T04:07:11.088Z,3.89
2023-04-05T04:09:39.557Z,3.90
2023-04-05T04:12:08.469Z,3.90
2023-04-05T04:14:40.035Z,3.76
2023-04-05T04:17:12.866Z,3.71
2023-04-05T04:19:53.492Z,3.87
2023-04-05T04:22:22.711Z,3.86
2023-04-05T04:24:53.653Z,3.85
2023-04-05T04:27:29.485Z,4.00
2023-04-05T04:30:10.971Z,3.56
2023-04-05T04:32:55.673Z,3.78
2023-04-05T04:35:30.767Z,3.57
2023-04-05T04:38:04.752Z,3.31
2023-04-05T04:40:40.370Z,3.33
2023-04-05T04:43:17.494Z,3.90
2023-04-05T04:45:55.012Z,3.49
2023-04-05T04:48:25.873Z,3.45
2023-04-05T04:50:58.746Z,3.70
2023-04-05T04:53:34.091Z,3.78
2023-04-05T04:56:09.045Z,3.65
2023-04-05T04:58:39.713Z,3.45
2023-04-05T05:03:55.656Z,3.90
2023-04-05T05:06:31.000Z,3.72
2023-04-05T05:08:59.236Z,3.07
2023-04-05T05:11:29.115Z,3.49
2023-04-05T05:14:04.066Z,3.58
2023-04-05T05:16:33.811Z,3.54
2023-04-05T05:19:01.832Z,3.54
2023-04-05T05:21:37.231Z,3.87
2023-04-05T05:24:10.270Z,3.82
2023-04-05T05:26:39.664Z,3.71
2023-04-05T05:29:21.631Z,3.57
2023-04-05T05:31:54.828Z,3.57
2023-04-05T05:34:24.780Z,3.58
2023-04-05T05:36:56.130Z,3.43
2023-04-05T05:39:27.844Z,3.62
2023-04-05T05:41:57.670Z,4.16
2023-04-05T05:44:26.161Z,4.41
2023-04-05T05:46:59.163Z,4.55
2023-04-05T05:49:33.646Z,4.52
2023-04-05T05:52:04.560Z,4.23
2023-04-05T05:54:33.111Z,4.23
2023-04-05T05:57:04.724Z,4.51
2023-04-05T05:59:39.600Z,4.37
2023-04-05T06:02:10.712Z,4.62
2023-04-05T06:04:39.646Z,4.45
2023-04-05T06:07:07.842Z,4.73
2023-04-05T06:09:38.110Z,4.26
2023-04-05T06:12:09.072Z,4.62
2023-04-05T06:14:37.880Z,4.99
2023-04-05T06:17:10.515Z,4.84
2023-04-05T06:19:39.440Z,5.11
2023-04-05T06:24:54.303Z,5.40
2023-04-05T06:27:24.630Z,5.14
2023-04-05T06:29:54.139Z,5.28
2023-04-05T06:32:25.984Z,5.45
2023-04-05T06:34:54.717Z,5.19
2023-04-05T06:37:28.847Z,5.37
2023-04-05T06:40:07.628Z,5.63
2023-04-05T06:42:37.728Z,5.81
2023-04-05T06:45:10.610Z,5.86
2023-04-05T06:47:42.441Z,6.34
2023-04-05T06:52:50.655Z,6.88
2023-04-05T06:55:19.344Z,6.91
2023-04-05T06:57:46.954Z,6.70
2023-04-05T07:00:19.932Z,6.55
2023-04-05T07:02:54.864Z,6.73
2023-04-05T07:05:38.686Z,6.98
2023-04-05T07:08:09.405Z,7.09
2023-04-05T07:10:41.807Z,7.22
2023-04-05T07:13:10.118Z,7.44
2023-04-05T07:15:41.016Z,6.90
2023-04-05T07:18:19.438Z,7.26
2023-04-05T07:20:52.333Z,7.68
2023-04-05T07:23:23.060Z,6.55
2023-04-05T07:25:53.265Z,7.25
2023-04-05T07:28:26.613Z,7.46
2023-04-05T07:31:05.812Z,7.76
2023-04-05T07:33:35.689Z,7.60
2023-04-05T07:36:08.603Z,8.05
2023-04-05T07:38:37.370Z,8.17
2023-04-05T07:41:16.680Z,8.22
2023-04-05T07:43:47.216Z,8.13
2023-04-05T07:46:17.759Z,8.42
2023-04-05T07:48:49.873Z,8.17
2023-04-05T07:51:17.837Z,8.44
2023-04-05T07:53:52.511Z,8.50
2023-04-05T07:56:23.198Z,8.54
2023-04-05T07:58:56.242Z,8.03
2023-04-05T08:01:29.656Z,8.17
2023-04-05T08:03:59.028Z,8.77
2023-04-05T08:06:31.225Z,8.80
2023-04-05T08:08:59.257Z,8.69
2023-04-05T08:11:27.468Z,9.17
2023-04-05T08:13:56.835Z,8.53
2023-04-05T08:16:28.682Z,9.18
2023-04-05T08:18:59.169Z,9.30
2023-04-05T08:21:28.799Z,8.96
2023-04-05T08:23:57.122Z,9.53
2023-04-05T08:26:26.263Z,9.62
2023-04-05T08:28:57.066Z,9.66
2023-04-05T08:31:26.912Z,9.31
2023-04-05T08:33:58.684Z,9.46
2023-04-05T08:36:28.958Z,9.27
2023-04-05T08:38:57.582Z,9.57
2023-04-05T08:41:29.024Z,9.64
2023-04-05T08:44:04.612Z,9.66
2023-04-05T08:46:34.160Z,9.33
2023-04-05T08:49:08.354Z,9.57
2023-04-05T08:51:41.070Z,8.97
2023-04-05T08:54:10.178Z,9.17
2023-04-05T08:59:22.320Z,9.31
2023-04-05T09:01:53.634Z,9.14
2023-04-05T09:04:27.731Z,10.14
2023-04-05T09:07:00.144Z,10.22
2023-04-05T09:09:35.777Z,10.31
2023-04-05T09:12:14.458Z,9.76
2023-04-05T09:14:48.646Z,9.70
2023-04-05T09:17:20.145Z,9.64
2023-04-05T09:19:50.714Z,9.80
2023-04-05T09:22:33.721Z,10.07
2023-04-05T09:25:12.254Z,10.67
2023-04-05T09:27:57.921Z,10.92
2023-04-05T09:30:28.095Z,10.82
2023-04-05T09:32:59.155Z,10.50
2023-04-05T09:35:29.996Z,10.52
2023-04-05T09:38:05.637Z,10.53
2023-04-05T09:40:43.983Z,10.72
2023-04-05T09:43:14.631Z,10.56
2023-04-05T09:45:46.768Z,10.59
2023-04-05T09:48:16.264Z,10.89
2023-04-05T09:50:46.069Z,11.25
2023-04-05T09:53:19.102Z,11.24
2023-04-05T09:55:56.736Z,11.38
2023-04-05T09:58:25.908Z,11.06
2023-04-05T10:01:09.715Z,11.22
2023-04-05T10:03:51.126Z,11.23
2023-04-05T10:06:19.259Z,11.49
2023-04-05T10:08:50.748Z,10.62
2023-04-05T10:11:21.097Z,11.18
2023-04-05T10:13:50.806Z,10.91
2023-04-05T10:16:25.595Z,11.29
2023-04-05T10:18:54.050Z,12.00
2023-04-05T10:21:25.388Z,11.90
2023-04-05T10:24:07.044Z,11.11
2023-04-05T10:26:47.613Z,11.09
2023-04-05T10:29:26.403Z,11.74
2023-04-05T10:32:11.478Z,11.64
2023-04-05T10:34:58.878Z,11.48
2023-04-05T10:37:37.277Z,12.07
2023-04-05T10:40:18.741Z,11.59
2023-04-05T10:42:50.621Z,11.33
2023-04-05T10:45:22.662Z,11.51
2023-04-05T10:47:59.550Z,11.40
2023-04-05T10:50:28.292Z,10.75
2023-04-05T10:53:05.697Z,11.44
2023-04-05T10:55:35.540Z,11.95
2023-04-05T10:58:05.785Z,12.40
2023-04-05T11:00:43.812Z,12.56
2023-04-05T11:03:51.982Z,12.69
2023-04-05T11:06:33.628Z,12.67
2023-04-05T11:09:11.767Z,12.20
2023-04-05T11:11:44.060Z,12.32
2023-04-05T11:14:28.855Z,12.73
2023-04-05T11:16:59.227Z,12.17
2023-04-05T11:19:48.646Z,12.72
2023-04-05T11:22:27.659Z,12.42
2023-04-05T11:25:04.913Z,12.73
2023-04-05T11:27:37.764Z,12.80
2023-04-05T11:30:09.988Z,12.40
2023-04-05T11:32:45.231Z,12.23
2023-04-05T11:35:24.683Z,11.99
2023-04-05T11:37:57.143Z,11.92
2023-04-05T11:40:34.754Z,11.69
2023-04-05T11:43:08.058Z,12.21
2023-04-05T11:45:39.789Z,11.64
2023-04-05T11:48:14.700Z,11.62
2023-04-05T11:50:45.622Z,12.16
2023-04-05T11:53:16.855Z,12.66
2023-04-05T11:55:56.695Z,12.72
2023-04-05T11:58:26.861Z,13.23
2023-04-05T12:01:00.533Z,13.22
2023-04-05T12:03:32.726Z,12.55
2023-04-05T12:06:05.139Z,12.74
2023-04-05T12:08:43.028Z,12.13
2023-04-05T12:11:14.943Z,12.41
2023-04-05T12:14:00.813Z,12.48
2023-04-05T12:16:40.702Z,13.33
2023-04-05T12:19:10.515Z,13.40
2023-04-05T12:21:45.985Z,13.60
2023-04-05T12:24:17.767Z,13.40
2023-04-05T12:26:46.968Z,13.50
2023-04-05T12:29:22.085Z,13.72
2023-04-05T12:31:52.933Z,13.57
2023-04-05T12:34:26.503Z,13.80
2023-04-05T12:36:57.877Z,13.95
2023-04-05T12:39:33.114Z,14.17
2023-04-05T12:42:06.782Z,14.05
2023-04-05T12:44:37.032Z,14.26
2023-04-05T12:47:12.962Z,14.16
2023-04-05T12:49:43.073Z,14.67
2023-04-05T12:52:11.870Z,14.68
2023-04-05T12:54:40.662Z,14.65
2023-04-05T13:00:08.810Z,13.96
2023-04-05T13:02:44.749Z,13.51
2023-04-05T13:05:17.944Z,13.53
2023-04-05T13:07:48.754Z,13.95
2023-04-05T13:10:18.752Z,13.44
2023-04-05T13:12:51.609Z,13.86
2023-04-05T13:15:32.268Z,13.98
2023-04-05T13:18:06.406Z,13.83
2023-04-05T13:20:38.735Z,13.55
2023-04-05T13:23:12.213Z,13.90
2023-04-05T13:25:47.631Z,14.12
2023-04-05T13:28:24.059Z,14.40
2023-04-05T13:30:54.925Z,13.90
2023-04-05T13:33:24.302Z,13.90
2023-04-05T13:35:53.156Z,13.91
2023-04-05T13:38:22.651Z,14.32
2023-04-05T13:40:58.098Z,14.36
2023-04-05T13:46:04.736Z,14.13
2023-04-05T13:48:41.630Z,14.17
2023-04-05T13:51:09.981Z,13.94
2023-04-05T13:53:46.511Z,13.69
2023-04-05T13:56:18.243Z,13.61
2023-04-05T13:58:48.791Z,13.28
2023-04-05T14:01:18.010Z,13.45
2023-04-05T14:03:50.714Z,13.46
2023-04-05T14:09:00.505Z,12.84
2023-04-05T14:11:29.717Z,13.23
2023-04-05T14:14:02.426Z,12.87
2023-04-05T14:16:36.576Z,12.97
2023-04-05T14:19:14.693Z,13.09
2023-04-05T14:21:43.008Z,13.33
2023-04-05T14:24:11.359Z,13.41
2023-04-05T14:26:49.497Z,12.89
2023-04-05T14:32:08.202Z,13.16
2023-04-05T14:34:41.921Z,13.08
2023-04-05T14:37:11.111Z,12.82
2023-04-05T14:39:51.356Z,12.97
2023-04-05T14:42:34.152Z,13.19
2023-04-05T14:45:18.964Z,13.08
2023-04-05T14:47:52.960Z,12.88
2023-04-05T14:50:24.833Z,12.99
2023-04-05T14:52:56.654Z,12.92
2023-04-05T14:55:39.573Z,13.12
2023-04-05T14:58:11.598Z,13.08
2023-04-05T15:00:52.159Z,12.61
2023-04-05T15:03:24.055Z,12.75
2023-04-05T15:06:03.588Z,12.76
2023-04-05T15:08:36.192Z,12.44
2023-04-05T15:11:08.531Z,12.46
2023-04-05T15:13:44.763Z,12.71
2023-04-05T15:16:26.784Z,12.27
2023-04-05T15:19:04.526Z,12.10
2023-04-05T15:21:35.736Z,12.71
2023-04-05T15:24:06.295Z,12.30
2023-04-05T15:26:42.895Z,12.25
2023-04-05T15:29:11.943Z,12.39
2023-04-05T15:31:52.186Z,11.99
2023-04-05T15:34:26.914Z,11.93
2023-04-05T15:37:03.769Z,11.94
2023-04-05T15:42:24.643Z,12.40
2023-04-05T15:44:55.378Z,12.49
2023-04-05T15:47:25.998Z,12.34
2023-04-05T15:50:02.573Z,11.93
2023-04-05T15:55:20.623Z,11.91
2023-04-05T15:57:54.767Z,12.07
2023-04-05T16:00:26.634Z,12.12
2023-04-05T16:05:34.596Z,11.74
2023-04-05T16:08:04.535Z,11.96
2023-04-05T16:10:42.898Z,11.92
2023-04-05T16:15:51.096Z,11.74
2023-04-05T16:18:24.116Z,11.84
2023-04-05T16:23:30.667Z,11.85
2023-04-05T16:26:01.188Z,11.79
2023-04-05T16:28:36.691Z,11.94
2023-04-05T16:31:08.647Z,11.92
2023-04-05T16:33:44.167Z,11.69
2023-04-05T16:36:25.919Z,11.77
2023-04-05T16:38:55.173Z,11.89
2023-04-05T16:41:32.669Z,12.07
2023-04-05T16:44:09.569Z,12.02
2023-04-05T16:46:46.057Z,11.49
2023-04-05T16:49:16.644Z,11.59
2023-04-05T16:51:47.656Z,12.12
2023-04-05T16:54:22.638Z,12.25
2023-04-05T16:56:53.152Z,12.01
2023-04-05T16:59:21.537Z,11.75
2023-04-05T17:04:29.682Z,11.76
2023-04-05T17:06:59.678Z,11.73
2023-04-05T17:09:36.536Z,11.45
2023-04-05T17:12:07.021Z,11.51
2023-04-05T17:14:36.609Z,11.29
2023-04-05T17:17:12.340Z,11.30
2023-04-05T17:19:55.131Z,11.26
2023-04-05T17:22:31.632Z,11.16
2023-04-05T17:25:02.900Z,10.99
2023-04-05T17:27:43.604Z,10.79
2023-04-05T17:30:16.108Z,10.89
2023-04-05T17:32:51.600Z,10.69
2023-04-05T17:35:20.884Z,10.56
2023-04-05T17:40:36.711Z,10.07
2023-04-05T17:43:14.537Z,10.36
2023-04-05T17:45:45.532Z,10.46
2023-04-05T17:48:14.343Z,10.49
2023-04-05T17:50:43.656Z,10.46
2023-04-05T17:53:17.575Z,10.37
2023-04-05T17:58:41.128Z,10.25
2023-04-05T18:04:01.657Z,10.07
2023-04-05T18:06:37.964Z,9.86
2023-04-05T18:09:21.791Z,9.77
2023-04-05T18:11:57.147Z,9.67
2023-04-05T18:14:25.625Z,9.59
2023-04-05T18:17:03.110Z,9.58
2023-04-05T18:19:40.655Z,9.41
2023-04-05T18:22:10.254Z,9.10
2023-04-05T18:24:45.494Z,9.04
2023-04-05T18:27:15.429Z,8.88
2023-04-05T18:29:46.900Z,8.70
2023-04-05T18:32:21.864Z,8.75
2023-04-05T18:34:57.722Z,8.52
2023-04-05T18:37:29.707Z,8.45
2023-04-05T18:40:10.138Z,8.50
2023-04-05T18:42:40.127Z,8.00
2023-04-05T18:47:50.573Z,8.22
2023-04-05T18:50:24.753Z,7.95
2023-04-05T18:53:01.556Z,7.80
2023-04-05T18:55:32.167Z,8.10
2023-04-05T18:58:03.801Z,7.63
2023-04-05T19:00:36.990Z,7.75
2023-04-05T19:05:57.000Z,7.70
2023-04-05T19:08:26.869Z,7.67
2023-04-05T19:11:13.094Z,7.57
2023-04-05T19:13:47.663Z,7.54
2023-04-05T19:16:28.611Z,7.23
2023-04-05T19:19:11.505Z,7.23
2023-04-05T19:21:44.681Z,7.68
2023-04-05T19:24:16.774Z,7.35
2023-04-05T19:26:53.617Z,7.09
2023-04-05T19:29:32.604Z,6.83
2023-04-05T19:32:14.692Z,7.06
2023-04-05T19:34:48.493Z,6.65
2023-04-05T19:37:18.892Z,6.62
2023-04-05T19:39:55.109Z,6.62
2023-04-05T19:42:26.630Z,6.65
2023-04-05T19:44:58.590Z,6.73
2023-04-05T19:50:37.011Z,6.50
2023-04-05T19:53:08.936Z,6.58
2023-04-05T19:55:40.806Z,6.35
2023-04-05T19:58:10.055Z,6.20
2023-04-05T20:00:49.747Z,6.38
2023-04-05T20:03:37.503Z,6.60
2023-04-05T20:06:10.893Z,6.23
2023-04-05T20:08:46.824Z,6.29
2023-04-05T20:11:16.961Z,6.35
2023-04-05T20:13:55.411Z,6.39
2023-04-05T20:16:33.630Z,6.58
2023-04-05T20:19:06.821Z,6.75
2023-04-05T20:21:39.109Z,6.84
2023-04-05T20:26:55.757Z,7.34
2023-04-05T20:29:28.896Z,7.39
2023-04-05T20:32:11.602Z,7.20
2023-04-05T20:34:39.781Z,6.74
2023-04-05T20:37:11.558Z,7.13
2023-04-05T20:39:41.821Z,7.40
2023-04-05T20:42:15.587Z,7.09
2023-04-05T20:44:48.268Z,7.22
2023-04-05T20:47:15.883Z,7.26
2023-04-05T20:49:47.638Z,7.17
2023-04-05T20:52:23.188Z,7.33
2023-04-05T20:54:52.357Z,7.12
2023-04-05T20:57:24.140Z,7.11
2023-04-05T20:59:51.919Z,7.18
2023-04-05T21:02:23.645Z,6.90
2023-04-05T21:04:53.527Z,7.04
2023-04-05T21:07:29.923Z,6.57
2023-04-05T21:09:58.384Z,6.69
2023-04-05T21:12:33.740Z,6.73
2023-04-05T21:15:03.312Z,6.50
2023-04-05T21:17:35.016Z,6.42
2023-04-05T21:20:08.476Z,6.68
2023-04-05T21:22:41.340Z,6.82
2023-04-05T21:25:15.481Z,6.35
2023-04-05T21:27:46.065Z,6.33
2023-04-05T21:30:14.938Z,6.20
2023-04-05T21:32:42.740Z,6.33
2023-04-05T21:35:12.833Z,6.04
2023-04-05T21:37:40.716Z,5.92
2023-04-05T21:40:09.788Z,6.07
2023-04-05T21:42:37.951Z,6.10
2023-04-05T21:45:11.484Z,5.87
2023-04-05T21:47:40.557Z,5.86
2023-04-05T21:50:08.877Z,6.02
2023-04-05T21:52:37.132Z,5.81
2023-04-05T21:55:09.224Z,5.63
2023-04-05T21:57:37.512Z,5.78
2023-04-05T22:00:08.676Z,5.51
2023-04-05T22:02:39.958Z,5.44
2023-04-05T22:05:08.761Z,5.76
2023-04-05T22:07:36.723Z,5.83
2023-04-05T22:10:06.329Z,5.87
2023-04-05T22:12:36.558Z,5.67
2023-04-05T22:15:07.786Z,5.69
2023-04-05T22:17:36.659Z,5.51
2023-04-05T22:20:05.005Z,5.35
2023-04-05T22:22:33.579Z,5.49
2023-04-05T22:25:01.819Z,5.48
2023-04-05T22:27:30.243Z,5.51
2023-04-05T22:29:58.791Z,5.39
2023-04-05T22:32:27.773Z,5.29
2023-04-05T22:34:56.612Z,5.05
2023-04-05T22:37:25.412Z,5.25
2023-04-05T22:39:53.552Z,5.09
2023-04-05T22:42:24.138Z,4.96
2023-04-05T22:44:52.737Z,5.32
2023-04-05T22:47:21.556Z,5.06
2023-04-05T22:49:49.858Z,4.86
2023-04-05T22:52:18.080Z,4.78
2023-04-05T22:54:46.088Z,4.86
2023-04-05T22:57:13.581Z,4.95
2023-04-05T22:59:41.304Z,5.16
2023-04-05T23:02:09.801Z,4.95
2023-04-05T23:04:37.741Z,4.88
2023-04-05T23:07:06.811Z,4.85
2023-04-05T23:09:36.846Z,4.70
2023-04-05T23:12:07.012Z,4.86
2023-04-05T23:14:40.737Z,4.55
2023-04-05T23:17:08.933Z,4.47
2023-04-05T23:19:36.601Z,4.52
2023-04-05T23:22:04.640Z,4.39
2023-04-05T23:24:32.024Z,4.63
2023-04-05T23:27:00.592Z,4.50
2023-04-05T23:29:29.122Z,4.47
2023-04-05T23:31:56.644Z,4.60
2023-04-05T23:34:24.903Z,4.73
2023-04-05T23:37:00.562Z,4.59
2023-04-05T23:39:28.247Z,4.94
2023-04-05T23:41:56.822Z,4.59
2023-04-05T23:44:24.518Z,4.33
2023-04-05T23:46:52.377Z,4.66
2023-04-05T23:49:19.988Z,4.29
2023-04-05T23:51:47.310Z,4.29
2023-04-05T23:54:16.859Z,4.26
2023-04-05T23:56:45.922Z,4.47
2023-04-05T23:59:14.536Z,4.53
